METAR Data
IDs: Format: Raw Decoded Include TAF

Data at: 1403 UTC 20 Jul 2019

METAR for:KDBQ (Dubuque Rgnl, IA, US)
Text:KDBQ 201353Z 23014KT 10SM BKN060 28/25 A2983 RMK AO2 SLP092 T02830250
Temperature: 28.3°C ( 83°F)
Dewpoint: 25.0°C ( 77°F) [RH = 82%]
Pressure (altimeter):29.83 inches Hg (1010.2 mb) [Sea level pressure: 1009.2 mb]
Winds:from the SW (230 degrees) at 16 MPH (14 knots; 7.2 m/s)
Visibility:10 or more sm (16+ km)
Ceiling:6000 feet AGL
Clouds: broken clouds at 6000 feet AGL